createdAt,value
2018-02-06T00:00:32.755Z,-0.90
2018-02-06T00:03:01.539Z,-0.90
2018-02-06T00:05:29.063Z,-0.90
2018-02-06T00:07:56.621Z,-0.90
2018-02-06T00:10:24.167Z,-0.80
2018-02-06T00:12:51.705Z,-0.80
2018-02-06T00:15:20.074Z,-0.90
2018-02-06T00:17:47.677Z,-0.90
2018-02-06T00:20:15.205Z,-0.90
2018-02-06T00:22:50.979Z,-0.90
2018-02-06T00:25:18.528Z,-1.00
2018-02-06T00:27:46.807Z,-1.00
2018-02-06T00:30:14.389Z,-1.00
2018-02-06T00:32:41.945Z,-1.00
2018-02-06T00:35:09.695Z,-1.00
2018-02-06T00:37:37.733Z,-1.00
2018-02-06T00:40:05.275Z,-0.90
2018-02-06T00:42:32.822Z,-1.00
2018-02-06T00:45:10.283Z,-1.00
2018-02-06T00:47:39.090Z,-1.10
2018-02-06T00:50:06.640Z,-1.00
2018-02-06T00:52:34.190Z,-0.90
2018-02-06T00:55:01.746Z,-1.00
2018-02-06T00:57:29.280Z,-1.00
2018-02-06T00:59:57.575Z,-1.00
2018-02-06T01:02:25.102Z,-1.00
2018-02-06T01:04:52.699Z,-1.00
2018-02-06T01:07:20.230Z,-1.00
2018-02-06T01:09:48.576Z,-1.10
2018-02-06T01:12:16.206Z,-1.00
2018-02-06T01:14:43.765Z,-0.90
2018-02-06T01:17:11.283Z,-1.00
2018-02-06T01:19:39.622Z,-1.00
2018-02-06T01:22:07.148Z,-1.10
2018-02-06T01:24:34.770Z,-1.10
2018-02-06T01:27:02.295Z,-1.10
2018-02-06T01:29:29.859Z,-1.10
2018-02-06T01:31:57.434Z,-1.10
2018-02-06T01:34:25.050Z,-1.10
2018-02-06T01:36:52.559Z,-1.10
2018-02-06T01:39:20.131Z,-1.20
2018-02-06T01:41:47.691Z,-1.20
2018-02-06T01:44:15.260Z,-1.20
2018-02-06T01:46:43.534Z,-1.20
2018-02-06T01:49:11.854Z,-1.20
2018-02-06T01:51:39.400Z,-1.20
2018-02-06T01:54:06.967Z,-1.20
2018-02-06T01:56:34.485Z,-1.20
2018-02-06T01:59:02.084Z,-1.20
2018-02-06T02:01:29.640Z,-1.20
2018-02-06T02:03:57.193Z,-1.20
2018-02-06T02:06:24.832Z,-1.30
2018-02-06T02:08:52.435Z,-1.30
2018-02-06T02:11:19.982Z,-1.30
2018-02-06T02:13:47.517Z,-1.30
2018-02-06T02:16:15.799Z,-1.20
2018-02-06T02:18:43.349Z,-1.20
2018-02-06T02:21:11.647Z,-1.30
2018-02-06T02:23:39.194Z,-1.30
2018-02-06T02:26:07.470Z,-1.30
2018-02-06T02:28:35.004Z,-1.30
2018-02-06T02:31:02.596Z,-1.40
2018-02-06T02:33:30.159Z,-1.30
2018-02-06T02:35:57.712Z,-1.30
2018-02-06T02:38:25.264Z,-1.30
2018-02-06T02:40:53.530Z,-1.30
2018-02-06T04:39:08.106Z,-0.90
2018-02-06T04:41:35.762Z,-0.90
2018-02-06T04:44:04.071Z,-1.00
2018-02-06T04:46:31.623Z,-0.90
2018-02-06T04:48:59.147Z,-0.90
2018-02-06T04:51:26.802Z,-0.90
2018-02-06T04:53:54.370Z,-0.90
2018-02-06T04:56:22.956Z,-0.90
2018-02-06T04:58:50.503Z,-0.90
2018-02-06T05:01:18.068Z,-0.90
2018-02-06T05:03:45.587Z,-0.90
2018-02-06T05:06:13.193Z,-0.90
2018-02-06T05:08:40.854Z,-0.80
2018-02-06T05:11:08.528Z,-0.80
2018-02-06T05:13:36.094Z,-0.80
2018-02-06T05:16:03.664Z,-0.90
2018-02-06T05:18:31.174Z,-0.60
2018-02-06T05:20:58.722Z,-0.70
2018-02-06T05:23:27.038Z,-0.70
2018-02-06T05:25:54.683Z,-0.70
2018-02-06T05:28:22.219Z,-0.70
2018-02-06T05:30:50.502Z,-0.60
2018-02-06T05:33:18.837Z,-0.70
2018-02-06T05:35:46.450Z,-0.70
2018-02-06T05:38:14.066Z,-0.60
2018-02-06T05:40:41.699Z,-0.70
2018-02-06T05:43:09.215Z,-0.70
2018-02-06T05:45:37.517Z,-0.60
2018-02-06T05:48:05.035Z,-0.60
2018-02-06T05:50:32.561Z,-0.60
2018-02-06T05:53:00.084Z,-0.60
2018-02-06T05:55:27.641Z,-0.60
2018-02-06T05:57:55.403Z,-0.60
2018-02-06T06:00:23.750Z,-0.60
2018-02-06T06:02:51.297Z,-0.60
2018-02-06T06:05:18.900Z,-0.60
2018-02-06T06:07:46.423Z,-0.60
2018-02-06T06:10:13.975Z,-0.60
2018-02-06T06:12:41.495Z,-0.60
2018-02-06T06:15:09.046Z,-0.60
2018-02-06T06:17:36.561Z,-0.60
2018-02-06T06:20:04.893Z,-0.30
2018-02-06T06:22:32.414Z,-0.30
2018-02-06T06:25:00.825Z,-0.40
2018-02-06T06:27:28.407Z,-0.40
2018-02-06T06:29:55.952Z,-0.40
2018-02-06T06:32:23.502Z,-0.50
2018-02-06T06:34:51.072Z,-0.50
2018-02-06T06:37:18.624Z,-0.50
2018-02-06T06:39:46.181Z,-0.50
2018-02-06T06:42:13.735Z,-0.60
2018-02-06T06:44:41.264Z,-0.60
2018-02-06T06:47:09.558Z,-0.60
2018-02-06T06:49:37.101Z,-0.60
2018-02-06T06:52:05.412Z,-0.60
2018-02-06T06:54:32.953Z,-0.60
2018-02-06T06:57:10.619Z,-0.60
2018-02-06T06:59:38.179Z,-0.60
2018-02-06T07:02:07.243Z,-0.70
2018-02-06T07:04:35.619Z,-0.60
2018-02-06T07:07:03.280Z,-0.70
2018-02-06T07:09:30.870Z,-0.60
2018-02-06T07:11:58.485Z,-0.60
2018-02-06T07:14:26.102Z,-0.60
2018-02-06T07:16:54.371Z,-0.60
2018-02-06T07:19:22.003Z,-0.60
2018-02-06T07:21:49.548Z,-0.60
2018-02-06T07:24:17.090Z,-0.70
2018-02-06T07:26:44.642Z,-0.70
2018-02-06T07:29:12.179Z,-0.70
2018-02-06T07:31:40.495Z,-0.70
2018-02-06T07:34:08.045Z,-0.70
2018-02-06T07:36:35.734Z,-0.70
2018-02-06T07:39:03.272Z,-0.70
2018-02-06T07:41:30.797Z,-0.60
2018-02-06T07:43:59.103Z,-0.50
2018-02-06T07:46:26.659Z,-0.50
2018-02-06T07:48:54.210Z,-0.50
2018-02-06T07:51:21.802Z,-0.50
2018-02-06T07:53:49.351Z,-0.40
2018-02-06T07:56:17.469Z,-0.40
2018-02-06T07:58:45.066Z,-0.40
2018-02-06T08:01:12.582Z,-0.30
2018-02-06T08:03:40.194Z,-0.30
2018-02-06T08:06:07.744Z,-0.30
2018-02-06T08:08:35.264Z,-0.30
2018-02-06T08:11:02.817Z,-0.20
2018-02-06T08:13:30.343Z,-0.10
2018-02-06T08:15:57.890Z,0.00
2018-02-06T08:18:25.459Z,-0.10
2018-02-06T08:20:53.011Z,-0.10
2018-02-06T08:23:20.523Z,0.00
2018-02-06T08:25:48.090Z,0.00
2018-02-06T08:28:15.614Z,0.00
2018-02-06T08:30:43.246Z,0.10
2018-02-06T08:33:10.777Z,0.10
2018-02-06T08:35:39.179Z,0.10
2018-02-06T08:38:06.698Z,0.10
2018-02-06T08:40:35.024Z,0.10
2018-02-06T08:43:02.564Z,0.00
2018-02-06T08:45:30.111Z,0.10
2018-02-06T08:47:58.409Z,0.20
2018-02-06T08:50:25.949Z,0.20
2018-02-06T08:52:54.255Z,0.20
2018-02-06T08:55:21.805Z,0.20
2018-02-06T08:57:49.314Z,0.20
2018-02-06T09:00:16.852Z,0.10
2018-02-06T09:02:44.471Z,0.20
2018-02-06T09:05:12.773Z,0.30
2018-02-06T09:07:40.278Z,0.30
2018-02-06T09:10:07.834Z,0.30
2018-02-06T09:12:36.186Z,0.30
2018-02-06T09:15:03.797Z,0.40
2018-02-06T09:17:32.597Z,0.40
2018-02-06T09:20:00.137Z,0.40
2018-02-06T09:22:28.441Z,0.50
2018-02-06T09:24:55.980Z,0.40
2018-02-06T09:27:24.282Z,0.80
2018-02-06T09:29:51.959Z,0.80
2018-02-06T09:32:19.471Z,0.90
2018-02-06T09:34:47.882Z,1.70
2018-02-06T09:37:15.398Z,1.70
2018-02-06T09:39:42.990Z,2.60
2018-02-06T09:42:11.250Z,4.30
2018-02-06T09:44:39.828Z,4.50
2018-02-06T09:47:07.375Z,4.40
2018-02-06T09:49:35.699Z,4.50
2018-02-06T09:52:03.192Z,4.40
2018-02-06T09:54:30.742Z,4.30
2018-02-06T09:56:58.283Z,3.80
2018-02-06T09:59:25.823Z,3.30
2018-02-06T10:01:53.497Z,2.90
2018-02-06T10:04:21.034Z,2.80
2018-02-06T10:06:48.642Z,2.60
2018-02-06T10:09:16.252Z,2.50
2018-02-06T10:11:44.559Z,2.00
2018-02-06T10:14:12.175Z,1.90
2018-02-06T10:16:39.746Z,1.90
2018-02-06T10:19:08.151Z,1.50
2018-02-06T10:21:35.701Z,1.60
2018-02-06T10:24:03.414Z,1.50
2018-02-06T10:26:30.897Z,1.50
2018-02-06T10:28:59.302Z,1.40
2018-02-06T10:31:26.811Z,1.40
2018-02-06T10:33:54.455Z,1.30
2018-02-06T10:36:21.970Z,1.20
2018-02-06T10:38:50.281Z,1.20
2018-02-06T10:41:17.821Z,1.10
2018-02-06T10:43:45.451Z,1.30
2018-02-06T10:46:13.751Z,1.30
2018-02-06T10:48:41.313Z,1.20
2018-02-06T10:51:08.879Z,1.20
2018-02-06T10:53:36.443Z,1.10
2018-02-06T10:56:03.948Z,1.10
2018-02-06T10:58:31.542Z,1.00
2018-02-06T11:00:59.105Z,1.00
2018-02-06T11:03:26.681Z,1.00
2018-02-06T11:05:54.252Z,1.00
2018-02-06T11:08:21.807Z,1.00
2018-02-06T11:10:49.342Z,1.00
2018-02-06T11:13:17.010Z,1.00
2018-02-06T11:15:44.653Z,1.00
2018-02-06T11:18:12.974Z,1.00
2018-02-06T11:20:40.496Z,1.00
2018-02-06T11:23:08.188Z,0.90
2018-02-06T11:25:35.702Z,0.90
2018-02-06T11:28:04.019Z,1.00
2018-02-06T11:30:31.523Z,1.00
2018-02-06T11:32:59.219Z,1.00
2018-02-06T11:35:27.532Z,1.10
2018-02-06T11:37:55.038Z,1.10
2018-02-06T11:40:23.355Z,1.20
2018-02-06T11:42:50.891Z,1.20
2018-02-06T11:45:18.465Z,1.30
2018-02-06T11:47:45.991Z,1.40
2018-02-06T11:50:14.288Z,1.30
2018-02-06T11:52:41.962Z,1.20
2018-02-06T11:55:09.816Z,1.30
2018-02-06T11:57:38.021Z,1.20
2018-02-06T12:00:05.597Z,1.30
2018-02-06T12:02:33.179Z,1.20
2018-02-06T12:05:00.700Z,1.20
2018-02-06T12:07:28.210Z,1.30
2018-02-06T12:09:56.492Z,1.20
2018-02-06T12:12:24.823Z,1.30
2018-02-06T12:14:52.391Z,1.20
2018-02-06T12:17:19.938Z,1.30
2018-02-06T12:19:47.464Z,1.30
2018-02-06T12:22:16.632Z,1.30
2018-02-06T12:24:44.265Z,1.30
2018-02-06T12:27:11.877Z,1.40
2018-02-06T12:29:39.420Z,1.40
2018-02-06T12:32:07.735Z,1.40
2018-02-06T12:34:35.314Z,1.30
2018-02-06T12:37:02.841Z,1.40
2018-02-06T12:39:30.462Z,1.40
2018-02-06T12:41:59.043Z,1.50
2018-02-06T12:44:26.566Z,1.50
2018-02-06T12:46:54.080Z,1.40
2018-02-06T12:49:22.412Z,1.50
2018-02-06T12:51:49.929Z,1.40
2018-02-06T12:54:17.475Z,1.40
2018-02-06T12:56:45.934Z,1.40
2018-02-06T12:59:13.455Z,1.40
2018-02-06T13:01:44.201Z,1.40
2018-02-06T13:04:11.814Z,1.40
2018-02-06T13:06:39.325Z,1.40
2018-02-06T13:09:06.899Z,1.40
2018-02-06T13:11:34.463Z,1.40
2018-02-06T13:14:02.069Z,1.50
2018-02-06T13:16:29.663Z,1.50
2018-02-06T13:18:57.226Z,1.60
2018-02-06T13:21:24.751Z,1.50
2018-02-06T13:23:52.283Z,1.40
2018-02-06T13:26:20.690Z,1.30
2018-02-06T13:28:48.308Z,1.30
2018-02-06T13:31:15.877Z,1.30
2018-02-06T13:33:44.263Z,1.10
2018-02-06T13:36:12.653Z,1.10
2018-02-06T13:38:40.126Z,1.10
2018-02-06T13:41:07.766Z,1.10
2018-02-06T13:43:35.418Z,1.10
2018-02-06T13:46:03.034Z,1.20
2018-02-06T13:48:30.663Z,1.30
2018-02-06T13:50:58.239Z,1.30
2018-02-06T13:53:25.783Z,1.30
2018-02-06T13:55:53.450Z,1.40
2018-02-06T13:58:20.967Z,1.40
2018-02-06T14:00:48.648Z,1.40
2018-02-06T14:03:16.939Z,1.40
2018-02-06T14:05:44.501Z,1.40
2018-02-06T14:08:12.116Z,1.40
2018-02-06T14:10:39.738Z,1.50
2018-02-06T14:13:07.448Z,1.40
2018-02-06T14:15:35.793Z,1.40
2018-02-06T14:18:03.331Z,1.40
2018-02-06T14:20:31.725Z,1.50
2018-02-06T14:22:59.326Z,1.50
2018-02-06T14:25:26.846Z,1.50
2018-02-06T14:27:54.387Z,1.50
2018-02-06T14:30:21.928Z,1.50
2018-02-06T14:32:50.419Z,1.40
2018-02-06T14:35:17.991Z,1.40
2018-02-06T14:37:45.515Z,1.40
2018-02-06T14:40:13.936Z,1.40
2018-02-06T14:42:41.460Z,1.40
2018-02-06T14:45:10.667Z,1.40
2018-02-06T14:47:39.081Z,1.40
2018-02-06T14:50:08.039Z,1.30
2018-02-06T14:52:35.835Z,1.30
2018-02-06T14:55:03.354Z,1.20
2018-02-06T14:57:31.500Z,1.30
2018-02-06T14:59:59.121Z,1.10
2018-02-06T15:02:26.647Z,1.30
2018-02-06T15:04:54.985Z,1.20
2018-02-06T15:07:22.809Z,1.20
2018-02-06T15:09:50.602Z,1.10
2018-02-06T15:12:18.240Z,1.00
2018-02-06T15:14:45.769Z,1.00
2018-02-06T15:17:14.128Z,0.90
2018-02-06T15:19:42.483Z,0.80
2018-02-06T15:22:10.140Z,0.80
2018-02-06T15:24:37.911Z,0.70
2018-02-06T15:27:05.495Z,0.70
2018-02-06T15:29:33.073Z,0.70
2018-02-06T15:32:01.377Z,0.60
2018-02-06T15:34:29.023Z,0.60
2018-02-06T15:36:56.582Z,0.60
2018-02-06T15:39:24.120Z,0.80
2018-02-06T15:41:52.460Z,0.80
2018-02-06T15:44:19.989Z,0.80
2018-02-06T15:46:47.551Z,0.80
2018-02-06T15:49:15.086Z,0.80
2018-02-06T15:51:43.406Z,0.80
2018-02-06T15:54:11.030Z,0.80
2018-02-06T15:56:38.587Z,0.80
2018-02-06T15:59:06.891Z,0.90
2018-02-06T16:01:34.471Z,0.90
2018-02-06T16:04:02.017Z,1.00
2018-02-06T16:06:29.664Z,0.90
2018-02-06T16:08:57.270Z,0.90
2018-02-06T16:11:24.801Z,1.00
2018-02-06T16:13:52.319Z,1.00
2018-02-06T16:16:20.629Z,1.10
2018-02-06T16:18:48.150Z,1.10
2018-02-06T16:21:16.490Z,1.10
2018-02-06T16:23:44.083Z,1.10
2018-02-06T16:26:13.471Z,1.00
2018-02-06T16:28:42.491Z,1.00
2018-02-06T16:31:10.803Z,1.30
2018-02-06T16:33:38.371Z,1.30
2018-02-06T16:36:05.912Z,1.30
2018-02-06T16:38:33.488Z,1.20
2018-02-06T16:41:01.025Z,1.20
2018-02-06T16:43:28.559Z,1.10
2018-02-06T16:45:56.907Z,1.00
2018-02-06T16:48:24.426Z,0.90
2018-02-06T16:50:52.043Z,0.90
2018-02-06T16:53:19.607Z,1.10
2018-02-06T16:55:47.899Z,1.00
2018-02-06T16:58:15.531Z,1.00
2018-02-06T17:00:43.063Z,0.90
2018-02-06T17:03:10.598Z,0.90
2018-02-06T17:05:39.454Z,0.90
2018-02-06T17:08:07.732Z,0.80
2018-02-06T17:10:36.063Z,0.80
2018-02-06T17:13:03.614Z,0.80
2018-02-06T17:15:31.263Z,0.80
2018-02-06T17:17:58.862Z,0.70
2018-02-06T17:20:26.402Z,0.70
2018-02-06T17:22:54.115Z,0.70
2018-02-06T17:25:22.443Z,0.70
2018-02-06T17:27:49.998Z,0.70
2018-02-06T17:30:18.695Z,0.70
2018-02-06T17:32:46.274Z,0.70
2018-02-06T17:35:15.086Z,0.80
2018-02-06T17:37:43.369Z,0.70
2018-02-06T17:40:11.691Z,0.70
2018-02-06T17:42:39.283Z,0.70
2018-02-06T17:45:06.881Z,0.70
2018-02-06T17:47:34.607Z,0.80
2018-02-06T17:50:02.210Z,0.80
2018-02-06T17:52:29.716Z,0.80
2018-02-06T17:54:57.487Z,0.80
2018-02-06T17:57:25.000Z,0.90
2018-02-06T17:59:52.549Z,0.90
2018-02-06T18:02:20.092Z,0.80
2018-02-06T18:04:48.581Z,0.90
2018-02-06T18:07:16.108Z,0.90
2018-02-06T18:09:43.666Z,0.80
2018-02-06T18:12:11.489Z,0.90
2018-02-06T18:14:39.114Z,1.00
2018-02-06T18:17:07.540Z,1.00
2018-02-06T18:19:35.208Z,1.00
2018-02-06T18:22:02.751Z,1.00
2018-02-06T18:24:30.345Z,1.00
2018-02-06T18:26:57.963Z,1.00
2018-02-06T18:29:25.536Z,1.00
2018-02-06T18:31:53.137Z,1.10
2018-02-06T18:34:20.727Z,1.10
2018-02-06T18:36:48.235Z,1.10
2018-02-06T18:39:15.821Z,1.10
2018-02-06T18:41:43.346Z,1.00
2018-02-06T18:44:11.046Z,1.00
2018-02-06T18:46:39.367Z,1.00
2018-02-06T18:49:06.941Z,0.90
2018-02-06T18:51:34.569Z,0.90
2018-02-06T18:54:02.136Z,1.00
2018-02-06T18:56:29.756Z,0.90
2018-02-06T18:58:57.303Z,0.90
2018-02-06T19:01:24.904Z,1.00
2018-02-06T19:03:52.550Z,1.00
2018-02-06T19:06:21.009Z,0.80
2018-02-06T19:08:48.794Z,0.80
2018-02-06T19:11:17.094Z,0.80
2018-02-06T19:13:46.064Z,0.80
2018-02-06T19:16:14.387Z,0.80
2018-02-06T19:18:41.975Z,0.80
2018-02-06T19:21:09.609Z,0.80
2018-02-06T19:23:37.164Z,0.90
2018-02-06T19:26:04.766Z,0.90
2018-02-06T19:28:32.292Z,0.90
2018-02-06T19:30:59.851Z,0.90
2018-02-06T19:33:27.542Z,0.90
2018-02-06T19:35:55.116Z,0.90
2018-02-06T19:38:23.498Z,0.90
2018-02-06T19:40:51.040Z,0.90
2018-02-06T19:43:18.582Z,1.00
2018-02-06T19:45:46.133Z,0.90
2018-02-06T19:48:13.696Z,0.90
2018-02-06T19:50:41.243Z,0.90
2018-02-06T19:53:08.766Z,0.90
2018-02-06T19:55:36.311Z,0.90
2018-02-06T19:58:04.603Z,0.90
2018-02-06T20:00:32.934Z,0.80
2018-02-06T20:03:00.564Z,0.80
2018-02-06T20:05:28.545Z,0.90
2018-02-06T20:07:56.128Z,0.90
2018-02-06T20:10:23.843Z,0.90
2018-02-06T20:12:51.379Z,0.90
2018-02-06T20:15:19.745Z,0.90
2018-02-06T20:17:47.285Z,0.90
2018-02-06T20:20:14.834Z,0.90
2018-02-06T20:22:42.372Z,0.90
2018-02-06T20:25:09.917Z,1.00
2018-02-06T20:27:38.081Z,0.90
2018-02-06T20:30:06.385Z,1.10
2018-02-06T20:32:33.910Z,1.10
2018-02-06T20:35:01.604Z,1.10
2018-02-06T20:37:29.157Z,1.10
2018-02-06T20:39:56.717Z,1.10
2018-02-06T20:42:24.266Z,1.00
2018-02-06T20:44:52.682Z,1.10
2018-02-06T20:47:20.208Z,1.10
2018-02-06T20:49:47.783Z,1.10
2018-02-06T20:52:25.260Z,1.10
2018-02-06T20:54:52.834Z,1.10
2018-02-06T20:57:20.411Z,1.10
2018-02-06T20:59:49.071Z,1.10
2018-02-06T21:02:16.603Z,1.00
2018-02-06T21:04:44.931Z,1.10
2018-02-06T21:07:12.466Z,1.10
2018-02-06T21:09:40.022Z,1.10
2018-02-06T21:12:07.592Z,1.10
2018-02-06T21:14:35.171Z,1.20
2018-02-06T21:17:03.618Z,1.10
2018-02-06T21:19:31.188Z,1.10
2018-02-06T21:21:58.720Z,1.10
2018-02-06T21:24:27.146Z,1.00
2018-02-06T21:26:55.440Z,1.00
2018-02-06T21:29:23.055Z,1.00
2018-02-06T21:31:50.671Z,1.10
2018-02-06T21:34:18.224Z,1.00
2018-02-06T21:36:45.739Z,1.10
2018-02-06T21:39:13.326Z,1.00
2018-02-06T21:41:40.844Z,1.00
2018-02-06T21:44:08.404Z,1.00
2018-02-06T21:46:36.555Z,1.10
2018-02-06T21:49:04.984Z,1.10
2018-02-06T21:51:32.560Z,1.10
2018-02-06T21:54:00.132Z,1.10
2018-02-06T21:56:27.655Z,1.10
2018-02-06T21:58:55.183Z,1.10
2018-02-06T22:01:22.727Z,1.20
2018-02-06T22:03:51.130Z,1.30
2018-02-06T22:06:18.660Z,1.30
2018-02-06T22:08:46.195Z,1.30
2018-02-06T22:11:13.794Z,1.30
2018-02-06T22:13:42.128Z,1.30
2018-02-06T22:16:09.662Z,1.20
2018-02-06T22:18:37.224Z,1.30
2018-02-06T22:21:04.825Z,1.20
2018-02-06T22:23:32.475Z,1.20
2018-02-06T22:26:00.155Z,1.20
2018-02-06T22:28:27.768Z,1.20
2018-02-06T22:30:55.294Z,1.20
2018-02-06T22:33:23.604Z,1.20
2018-02-06T22:35:51.163Z,1.20
2018-02-06T22:38:18.703Z,1.20
2018-02-06T22:40:46.250Z,1.20
2018-02-06T22:43:14.586Z,1.20
2018-02-06T22:45:42.102Z,1.10
2018-02-06T22:48:09.916Z,1.10
2018-02-06T22:50:37.523Z,1.20
2018-02-06T22:53:05.109Z,1.10
2018-02-06T22:55:32.817Z,1.10
2018-02-06T22:58:00.421Z,1.00
2018-02-06T23:00:27.929Z,1.00
2018-02-06T23:02:55.473Z,1.00
2018-02-06T23:05:23.026Z,1.00
2018-02-06T23:07:51.174Z,1.10
2018-02-06T23:10:18.696Z,1.10
2018-02-06T23:12:46.992Z,1.00
2018-02-06T23:15:14.559Z,1.00
2018-02-06T23:17:42.174Z,1.10
2018-02-06T23:20:09.772Z,1.10
2018-02-06T23:22:37.463Z,1.10
2018-02-06T23:25:05.064Z,1.10
2018-02-06T23:27:32.667Z,1.00
2018-02-06T23:30:00.185Z,1.00
2018-02-06T23:32:27.743Z,1.10
2018-02-06T23:34:55.278Z,1.10
2018-02-06T23:37:22.829Z,1.10
2018-02-06T23:39:50.365Z,1.10
2018-02-06T23:42:17.961Z,1.20
2018-02-06T23:44:45.540Z,1.20
2018-02-06T23:47:13.049Z,1.20
2018-02-06T23:49:41.240Z,1.20
2018-02-06T23:52:08.751Z,1.20
2018-02-06T23:54:37.066Z,1.20
2018-02-06T23:57:04.643Z,1.20
2018-02-06T23:59:32.230Z,1.20
